Time;durP1;ratioP1;P1;durP2;ratioP2;P2;SDS_P1;SDS_P2;PMS_P1;PMS_P2;Temp;Humidity;BMP_temperature;BMP_pressure;BME280_temperature;BME280_humidity;BME280_pressure;Samples;Min_cycle;Max_cycle;Signal;HPM_P1;HPM_P2
2020/12/13 00:00:21;;;;;;;13.75;8.65;;;4.90;88.60;;;;;;5006761;28;20038;-77
2020/12/13 00:02:46;;;;;;;13.10;8.13;;;5.00;88.60;;;;;;5012836;28;20030;-76
2020/12/13 00:05:12;;;;;;;12.65;8.13;;;5.00;88.40;;;;;;5011271;28;20089;-77
2020/12/13 00:07:38;;;;;;;13.50;8.00;;;5.00;88.30;;;;;;5010905;28;20026;-77
2020/12/13 00:10:03;;;;;;;12.98;8.20;;;5.00;88.40;;;;;;4996647;28;20026;-75
2020/12/13 00:12:29;;;;;;;11.60;7.35;;;5.00;89.10;;;;;;4996000;28;20024;-77
2020/12/13 00:14:55;;;;;;;10.75;7.03;;;5.10;88.40;;;;;;4996115;28;20037;-76
2020/12/13 00:17:20;;;;;;;13.23;8.55;;;5.10;88.30;;;;;;4995945;28;20073;-77
2020/12/13 00:19:46;;;;;;;12.40;7.85;;;5.10;88.30;;;;;;4995917;28;20022;-76
2020/12/13 00:22:11;;;;;;;10.95;6.88;;;5.10;88.20;;;;;;4995741;28;20069;-76
2020/12/13 00:24:37;;;;;;;13.00;7.88;;;5.00;88.40;;;;;;4995834;28;20034;-76
2020/12/13 00:27:02;;;;;;;12.30;7.07;;;5.00;88.50;;;;;;4995695;28;20032;-77
2020/12/13 00:29:28;;;;;;;10.07;6.90;;;5.00;88.80;;;;;;4995873;28;20550;-77
2020/12/13 00:31:54;;;;;;;11.25;6.45;;;5.00;89.00;;;;;;4995524;28;20113;-78
2020/12/13 00:34:19;;;;;;;10.13;5.78;;;5.00;88.90;;;;;;4995580;28;20023;-76
2020/12/13 00:36:50;;;;;;;11.70;6.47;;;5.00;89.00;;;;;;4978000;28;20034;-75
2020/12/13 00:39:15;;;;;;;8.77;6.40;;;5.00;89.10;;;;;;4995426;28;20014;-76
2020/12/13 00:41:41;;;;;;;7.70;5.82;;;5.00;89.20;;;;;;4995425;28;20076;-76
2020/12/13 00:44:06;;;;;;;10.07;6.63;;;5.00;89.40;;;;;;4995290;28;20038;-77
2020/12/13 00:46:38;;;;;;;9.10;5.55;;;5.10;89.50;;;;;;4995444;28;20038;-78
2020/12/13 00:49:03;;;;;;;8.20;6.05;;;5.10;89.50;;;;;;4993956;28;20033;-77
2020/12/13 00:51:29;;;;;;;8.75;5.65;;;5.10;89.40;;;;;;4995063;28;20460;-76
2020/12/13 00:53:55;;;;;;;9.13;5.47;;;5.20;89.10;;;;;;4995563;28;20098;-76
2020/12/13 00:56:20;;;;;;;6.78;4.53;;;5.20;88.90;;;;;;4995433;28;20026;-76
2020/12/13 00:58:47;;;;;;;7.68;4.43;;;5.20;88.90;;;;;;4994258;28;20026;-76
2020/12/13 01:01:13;;;;;;;9.38;4.78;;;5.20;88.80;;;;;;4978275;28;20045;-76
2020/12/13 01:03:38;;;;;;;5.35;3.95;;;5.20;88.70;;;;;;4995309;28;20105;-76
2020/12/13 01:06:04;;;;;;;5.75;3.90;;;5.20;88.70;;;;;;4995261;28;20038;-76
2020/12/13 01:08:30;;;;;;;6.18;3.67;;;5.20;88.80;;;;;;4994821;28;20030;-77
2020/12/13 01:10:55;;;;;;;7.70;4.20;;;5.30;89.00;;;;;;4994711;28;20105;-76
2020/12/13 01:13:21;;;;;;;7.28;3.85;;;5.20;89.00;;;;;;4994518;28;20025;-76
2020/12/13 01:15:48;;;;;;;9.90;4.88;;;5.30;89.10;;;;;;4994564;28;20030;-76
2020/12/13 01:18:13;;;;;;;16.52;8.40;;;5.30;88.90;;;;;;4994533;28;20026;-76
2020/12/13 01:20:39;;;;;;;11.77;6.53;;;5.20;88.80;;;;;;4994511;28;20045;-76
2020/12/13 01:23:05;;;;;;;11.00;5.45;;;5.20;88.90;;;;;;4994503;28;20023;-75
2020/12/13 01:25:30;;;;;;;11.40;6.43;;;5.20;89.80;;;;;;4994341;28;20602;-75
2020/12/13 01:27:56;;;;;;;14.82;7.40;;;5.20;89.10;;;;;;4976941;28;20113;-76
2020/12/13 01:30:22;;;;;;;16.88;8.18;;;5.20;89.00;;;;;;4994289;28;20431;-76
2020/12/13 01:32:47;;;;;;;13.20;7.13;;;5.20;89.00;;;;;;4994427;28;20014;-76
2020/12/13 01:35:13;;;;;;;10.20;5.88;;;5.20;89.00;;;;;;4994223;28;20027;-76
2020/12/13 01:37:38;;;;;;;8.80;5.25;;;5.20;88.90;;;;;;4994305;28;20080;-74
2020/12/13 01:40:08;;;;;;;8.80;4.97;;;5.20;88.90;;;;;;4994302;28;20070;-75
2020/12/13 01:42:41;;;;;;;8.40;5.32;;;5.20;88.80;;;;;;4994174;28;20101;-76
2020/12/13 01:45:09;;;;;;;8.70;5.32;;;5.20;88.70;;;;;;4994053;28;20037;-77
2020/12/13 01:47:34;;;;;;;8.65;5.03;;;5.30;88.60;;;;;;4994090;28;20431;-76
2020/12/13 01:50:00;;;;;;;8.23;4.32;;;5.20;88.50;;;;;;4993846;28;20038;-76
2020/12/13 01:52:46;;;;;;;9.50;5.15;;;5.20;89.10;;;;;;4993997;28;20515;-77
2020/12/13 01:55:17;;;;;;;10.80;5.35;;;5.20;88.20;;;;;;4993988;28;20022;-77
2020/12/13 01:57:47;;;;;;;9.82;5.45;;;5.20;88.30;;;;;;4993888;28;20019;-77
2020/12/13 02:00:16;;;;;;;7.10;4.53;;;5.20;88.30;;;;;;4993630;28;20050;-77
2020/12/13 02:02:53;;;;;;;7.13;4.32;;;5.20;88.30;;;;;;4993444;28;20022;-77
2020/12/13 02:05:22;;;;;;;5.70;3.80;;;5.20;88.40;;;;;;4993603;28;20038;-77
2020/12/13 02:07:49;;;;;;;7.10;4.40;;;5.20;88.60;;;;;;4993870;28;20550;-77
2020/12/13 02:10:16;;;;;;;5.10;3.45;;;5.20;88.70;;;;;;4993686;28;20092;-77
2020/12/13 02:12:42;;;;;;;5.30;3.42;;;5.10;88.70;;;;;;4976249;28;20033;-77
2020/12/13 02:15:08;;;;;;;7.30;3.60;;;5.10;88.50;;;;;;4993731;28;20037;-77
2020/12/13 02:17:36;;;;;;;5.13;3.63;;;5.10;88.70;;;;;;4993713;28;20018;-77
2020/12/13 02:20:19;;;;;;;6.78;3.78;;;5.10;89.00;;;;;;4993888;28;20026;-77
2020/12/13 02:22:49;;;;;;;4.50;2.95;;;5.10;89.10;;;;;;4993782;28;20073;-76
2020/12/13 02:25:18;;;;;;;7.60;4.20;;;5.10;89.20;;;;;;4993547;28;20054;-75
2020/12/13 02:27:45;;;;;;;4.95;3.67;;;5.10;89.10;;;;;;4993491;28;20440;-75
2020/12/13 02:30:10;;;;;;;5.57;3.15;;;5.10;89.10;;;;;;4993438;28;20094;-79
2020/12/13 02:32:36;;;;;;;4.82;3.45;;;5.20;89.10;;;;;;4993529;28;20023;-75
2020/12/13 02:35:07;;;;;;;5.30;3.53;;;5.20;89.00;;;;;;4993407;28;20022;-76
2020/12/13 02:37:33;;;;;;;5.30;3.70;;;5.20;88.90;;;;;;4993421;28;20101;-75
2020/12/13 02:42:34;;;;;;;6.90;4.22;;;5.20;88.50;;;;;;5169195;23;20107;-76
2020/12/13 02:45:01;;;;;;;4.93;3.00;;;5.20;88.40;;;;;;5014651;28;20038;-75
2020/12/13 02:50:02;;;;;;;4.35;2.35;;;5.20;88.40;;;;;;5463569;23;20079;-77
2020/12/13 02:52:28;;;;;;;5.68;3.22;;;5.10;88.50;;;;;;5015401;28;20091;-76
2020/12/13 02:57:29;;;;;;;6.50;3.97;;;5.20;88.50;;;;;;5305943;23;20421;-77
2020/12/13 02:59:54;;;;;;;13.35;7.82;;;5.20;88.50;;;;;;5015256;28;20025;-76
2020/12/13 03:02:20;;;;;;;12.85;8.13;;;5.20;88.30;;;;;;5015195;28;20025;-77
2020/12/13 03:04:46;;;;;;;15.02;8.80;;;5.20;88.30;;;;;;5014990;28;20045;-77
2020/12/13 03:07:11;;;;;;;14.40;8.05;;;5.20;88.50;;;;;;5032647;28;20091;-76
2020/12/13 03:09:37;;;;;;;16.65;7.85;;;5.20;88.70;;;;;;5032763;28;20034;-76
2020/12/13 03:12:04;;;;;;;12.40;7.18;;;5.10;88.70;;;;;;5032703;28;20067;-77
2020/12/13 03:14:30;;;;;;;7.65;4.60;;;5.20;88.90;;;;;;5033785;28;20021;-76
2020/12/13 03:16:56;;;;;;;8.23;3.78;;;5.20;88.80;;;;;;5526011;23;20021;-76
2020/12/13 03:19:22;;;;;;;5.63;3.25;;;5.20;88.80;;;;;;5018570;28;20037;-75
2020/12/13 03:21:48;;;;;;;3.97;2.97;;;5.20;88.80;;;;;;5036275;28;20017;-77
2020/12/13 03:24:13;;;;;;;4.43;2.70;;;5.20;88.80;;;;;;5018385;28;20037;-76
2020/12/13 03:26:39;;;;;;;4.28;2.42;;;5.20;88.80;;;;;;5036189;28;20018;-77
2020/12/13 03:29:04;;;;;;;4.13;2.38;;;5.20;88.80;;;;;;5086462;23;20453;-77
2020/12/13 03:31:30;;;;;;;4.07;2.85;;;5.30;88.90;;;;;;5018460;28;20025;-77
2020/12/13 03:33:56;;;;;;;4.13;2.65;;;5.20;88.70;;;;;;5036071;28;20031;-77
2020/12/13 03:36:21;;;;;;;4.38;2.58;;;5.20;88.70;;;;;;5036043;28;20112;-77
2020/12/13 03:38:47;;;;;;;3.20;1.90;;;5.20;88.70;;;;;;5036239;28;20029;-77
2020/12/13 03:41:13;;;;;;;4.07;2.60;;;5.20;88.80;;;;;;5035963;28;20030;-77
2020/12/13 03:43:38;;;;;;;3.60;2.30;;;5.20;88.80;;;;;;5035840;28;20033;-77
2020/12/13 03:46:04;;;;;;;3.15;2.25;;;5.30;88.90;;;;;;5035752;28;20037;-77
2020/12/13 03:48:29;;;;;;;4.97;2.60;;;5.30;88.70;;;;;;5035947;28;20030;-77
2020/12/13 03:50:55;;;;;;;5.15;2.10;;;5.20;88.80;;;;;;5035807;28;20025;-77
2020/12/13 03:53:20;;;;;;;3.08;2.30;;;5.20;88.90;;;;;;5018184;28;20033;-77
2020/12/13 03:55:46;;;;;;;3.00;1.85;;;5.30;89.00;;;;;;5035749;28;20060;-77
2020/12/13 03:58:12;;;;;;;2.78;1.90;;;5.20;89.00;;;;;;5035740;28;20025;-77
2020/12/13 04:00:38;;;;;;;2.42;1.92;;;5.30;89.30;;;;;;5035574;28;20029;-78
2020/12/13 04:03:04;;;;;;;2.78;1.73;;;5.20;89.40;;;;;;5035587;28;20024;-78
2020/12/13 04:05:32;;;;;;;4.63;2.13;;;5.30;89.50;;;;;;5035389;28;20037;-78
2020/12/13 04:07:58;;;;;;;2.95;1.95;;;5.30;89.50;;;;;;5035435;28;20091;-77
2020/12/13 04:10:25;;;;;;;2.00;1.42;;;5.30;89.50;;;;;;5035051;28;20041;-77
2020/12/13 04:12:50;;;;;;;2.83;1.90;;;5.30;89.50;;;;;;5035450;28;20013;-77
2020/12/13 04:15:16;;;;;;;1.80;1.65;;;5.40;89.50;;;;;;5035322;28;20517;-78
2020/12/13 04:17:44;;;;;;;2.80;1.70;;;5.40;89.40;;;;;;5035424;28;20037;-77
2020/12/13 04:20:11;;;;;;;2.78;1.50;;;5.40;89.30;;;;;;5035276;28;20470;-77
2020/12/13 04:22:37;;;;;;;2.38;1.63;;;5.40;89.30;;;;;;5035531;28;20084;-78
2020/12/13 04:25:04;;;;;;;2.75;1.55;;;5.50;89.20;;;;;;5035316;28;20037;-77
2020/12/13 04:27:30;;;;;;;3.63;1.42;;;5.50;89.10;;;;;;5034710;28;20022;-77
2020/12/13 04:29:55;;;;;;;2.25;1.20;;;5.50;89.40;;;;;;5017213;28;20421;-77
2020/12/13 04:32:21;;;;;;;1.38;1.10;;;5.60;89.50;;;;;;5035332;28;20029;-78
2020/12/13 04:34:48;;;;;;;1.73;1.33;;;5.60;89.50;;;;;;5035247;28;20029;-78
2020/12/13 04:37:14;;;;;;;1.45;1.08;;;5.60;89.30;;;;;;5035148;28;20025;-77
2020/12/13 04:39:39;;;;;;;5.93;2.17;;;5.70;89.20;;;;;;5035102;28;20096;-78
2020/12/13 04:42:05;;;;;;;2.55;1.25;;;5.70;89.20;;;;;;5035148;28;20493;-77
2020/12/13 04:44:31;;;;;;;1.13;0.93;;;5.80;89.00;;;;;;5035109;28;20113;-78
2020/12/13 04:47:02;;;;;;;2.13;1.40;;;5.80;88.90;;;;;;5017423;28;20394;-78
2020/12/13 04:49:30;;;;;;;3.72;1.13;;;5.80;88.70;;;;;;5035355;28;20022;-78
2020/12/13 04:52:00;;;;;;;1.65;1.00;;;5.90;88.70;;;;;;5034994;28;20397;-78
2020/12/13 04:54:28;;;;;;;2.13;0.95;;;5.90;88.30;;;;;;5017122;28;20099;-78
2020/12/13 04:56:56;;;;;;;4.53;2.13;;;5.90;88.30;;;;;;5034748;28;20458;-78
2020/12/13 04:59:22;;;;;;;3.15;1.48;;;6.00;88.20;;;;;;5034482;28;20474;-78
2020/12/13 05:01:48;;;;;;;2.08;1.40;;;6.00;88.00;;;;;;5034504;28;20051;-78
2020/12/13 05:04:15;;;;;;;1.92;1.00;;;6.00;87.80;;;;;;5034332;28;20542;-78
2020/12/13 05:06:43;;;;;;;2.75;1.10;;;6.10;87.80;;;;;;5016612;28;20036;-78
2020/12/13 05:09:09;;;;;;;2.45;0.55;;;6.00;87.70;;;;;;5034246;28;20470;-78
2020/12/13 05:11:39;;;;;;;0.80;0.50;;;6.10;87.40;;;;;;5034515;28;20033;-78
2020/12/13 05:14:05;;;;;;;0.70;0.40;;;6.10;87.20;;;;;;5034331;28;20021;-78
2020/12/13 05:16:30;;;;;;;0.65;0.38;;;6.20;86.70;;;;;;5033947;28;20124;-77
2020/12/13 05:18:56;;;;;;;2.15;0.40;;;6.20;86.30;;;;;;5016482;28;20382;-77
2020/12/13 05:21:23;;;;;;;0.40;0.40;;;6.20;86.10;;;;;;5034155;28;20083;-77
2020/12/13 05:23:49;;;;;;;0.85;0.40;;;6.10;86.20;;;;;;5034050;28;20026;-77
2020/12/13 05:26:16;;;;;;;0.85;0.30;;;6.10;86.30;;;;;;5034118;28;20032;-77
2020/12/13 05:28:47;;;;;;;0.95;0.30;;;6.10;86.50;;;;;;5034070;28;20042;-77
2020/12/13 05:31:18;;;;;;;1.58;0.50;;;6.10;86.80;;;;;;5034165;28;20036;-77
2020/12/13 05:33:48;;;;;;;0.85;0.50;;;6.10;86.80;;;;;;5034260;28;20105;-78
2020/12/13 05:36:17;;;;;;;0.73;0.47;;;6.00;86.70;;;;;;5034020;28;20026;-77
2020/12/13 05:38:42;;;;;;;3.80;2.08;;;6.10;86.90;;;;;;5015433;28;20028;-77
2020/12/13 05:41:10;;;;;;;1.10;0.68;;;6.00;87.20;;;;;;5034095;28;20026;-77
2020/12/13 05:43:44;;;;;;;2.47;0.80;;;6.00;87.40;;;;;;5033995;28;20474;-77
2020/12/13 05:49:32;;;;;;;2.65;0.93;;;6.00;87.50;;;;;;5034425;28;20036;-76
2020/12/13 05:51:58;;;;;;;4.55;1.20;;;6.00;88.60;;;;;;5035068;28;20057;-78
2020/12/13 05:54:25;;;;;;;2.03;1.30;;;6.00;88.00;;;;;;5048673;28;20021;-77
2020/12/13 05:56:59;;;;;;;2.85;1.70;;;6.00;88.40;;;;;;5057388;28;20049;-78
2020/12/13 05:59:25;;;;;;;4.90;2.55;;;5.90;88.80;;;;;;5056971;28;20033;-78
2020/12/13 06:01:56;;;;;;;6.88;2.97;;;5.90;88.60;;;;;;5057083;28;20013;-77
2020/12/13 06:04:30;;;;;;;5.35;2.28;;;5.90;88.50;;;;;;5046514;28;20039;-76
2020/12/13 06:06:57;;;;;;;4.13;2.53;;;6.00;88.60;;;;;;5033516;28;20040;-77
2020/12/13 06:09:37;;;;;;;6.22;2.90;;;6.00;88.60;;;;;;5033255;28;20026;-76
2020/12/13 06:12:05;;;;;;;4.70;2.65;;;6.00;88.20;;;;;;5033318;28;20052;-76
2020/12/13 06:14:31;;;;;;;4.20;2.40;;;6.00;88.10;;;;;;5033264;28;20029;-76
2020/12/13 06:16:59;;;;;;;3.45;1.65;;;6.00;88.10;;;;;;5015492;28;20061;-75
2020/12/13 06:19:28;;;;;;;2.10;1.38;;;5.90;88.20;;;;;;5015548;28;20125;-75
2020/12/13 06:21:56;;;;;;;2.55;1.77;;;6.00;88.30;;;;;;5033251;28;20104;-75
2020/12/13 06:24:23;;;;;;;3.72;1.48;;;5.90;88.20;;;;;;5033145;28;20029;-76
2020/12/13 06:26:50;;;;;;;2.10;1.27;;;5.90;88.30;;;;;;5015444;28;20025;-75
2020/12/13 06:29:17;;;;;;;3.10;1.77;;;5.90;88.10;;;;;;5032864;28;20045;-75
2020/12/13 06:31:45;;;;;;;2.03;1.73;;;6.00;88.00;;;;;;5033042;28;20355;-75
2020/12/13 06:34:10;;;;;;;3.47;2.13;;;6.00;87.90;;;;;;5032898;28;20022;-75
2020/12/13 06:36:37;;;;;;;4.55;2.28;;;6.00;88.10;;;;;;5032913;28;20521;-76
2020/12/13 06:39:12;;;;;;;4.95;2.97;;;5.90;88.60;;;;;;5015278;28;20036;-76
2020/12/13 06:41:37;;;;;;;4.97;2.23;;;5.90;89.10;;;;;;5033006;28;20030;-76
2020/12/13 06:44:06;;;;;;;3.90;2.10;;;5.90;89.40;;;;;;5032809;28;20390;-77
2020/12/13 06:46:34;;;;;;;4.03;1.90;;;5.80;89.80;;;;;;5015081;28;20105;-77
2020/12/13 06:49:00;;;;;;;2.42;1.90;;;5.70;90.40;;;;;;5033043;28;20032;-77
2020/12/13 06:51:29;;;;;;;2.25;2.00;;;5.80;90.30;;;;;;5036831;28;20033;-76
2020/12/13 06:53:55;;;;;;;4.72;2.25;;;5.80;90.20;;;;;;5019206;28;20022;-77
2020/12/13 06:56:22;;;;;;;3.50;2.10;;;5.80;90.00;;;;;;5036788;28;20032;-77
2020/12/13 06:58:56;;;;;;;3.15;2.33;;;5.90;89.80;;;;;;5036763;28;20521;-77
2020/12/13 07:01:34;;;;;;;4.78;2.97;;;5.90;89.60;;;;;;5036500;28;20033;-76
2020/12/13 07:04:28;;;;;;;6.28;3.78;;;6.00;89.70;;;;;;5036490;28;20022;-78
2020/12/13 07:06:58;;;;;;;6.05;3.30;;;5.90;89.40;;;;;;5036516;28;20106;-77
2020/12/13 07:09:25;;;;;;;6.32;3.70;;;5.80;89.70;;;;;;5036355;28;20040;-77
2020/12/13 07:11:52;;;;;;;6.32;3.97;;;5.80;89.70;;;;;;5036599;28;20029;-77
2020/12/13 07:14:19;;;;;;;8.30;4.60;;;5.80;89.70;;;;;;5036430;28;20025;-78
2020/12/13 07:16:47;;;;;;;6.57;4.05;;;5.80;89.50;;;;;;5036298;28;20045;-77
2020/12/13 07:19:17;;;;;;;5.72;3.92;;;5.80;89.30;;;;;;5036309;28;20024;-78
2020/12/13 07:21:44;;;;;;;5.25;3.55;;;5.80;89.00;;;;;;5036281;28;20017;-78
2020/12/13 07:24:11;;;;;;;5.97;3.38;;;5.80;88.70;;;;;;5018387;28;20037;-78
2020/12/13 07:26:37;;;;;;;6.40;3.33;;;5.80;88.70;;;;;;5036266;28;20025;-78
2020/12/13 07:29:14;;;;;;;4.72;3.22;;;5.90;88.50;;;;;;5035961;28;20064;-76
2020/12/13 07:31:44;;;;;;;4.90;3.65;;;5.90;88.50;;;;;;5018316;28;20033;-77
2020/12/13 07:34:09;;;;;;;11.07;5.97;;;5.90;88.30;;;;;;5035756;28;20060;-76
2020/12/13 07:36:35;;;;;;;20.73;11.13;;;5.90;88.40;;;;;;5018261;28;20053;-77
2020/12/13 07:39:03;;;;;;;18.50;9.55;;;5.90;88.60;;;;;;5035645;28;20021;-77
2020/12/13 07:41:29;;;;;;;15.60;7.15;;;6.00;88.60;;;;;;5035888;28;20108;-77
2020/12/13 07:43:58;;;;;;;12.52;6.78;;;6.00;88.60;;;;;;5035796;28;20076;-78
2020/12/13 07:46:25;;;;;;;7.63;5.32;;;6.00;88.50;;;;;;5036146;28;20351;-78
2020/12/13 07:49:00;;;;;;;5.38;4.30;;;6.00;88.60;;;;;;5035670;28;20021;-77
2020/12/13 07:51:25;;;;;;;4.13;3.08;;;6.00;88.70;;;;;;5035694;28;20502;-77
2020/12/13 07:53:51;;;;;;;4.28;3.72;;;6.00;88.70;;;;;;5035552;28;20025;-77
2020/12/13 07:56:26;;;;;;;6.15;4.03;;;6.00;88.70;;;;;;5035533;28;20447;-77
2020/12/13 07:59:10;;;;;;;6.72;4.53;;;6.10;88.80;;;;;;5018018;28;20029;-77
2020/12/13 08:01:37;;;;;;;6.45;3.90;;;6.00;88.50;;;;;;5034460;28;20036;-78
2020/12/13 08:04:03;;;;;;;5.35;3.80;;;6.10;88.30;;;;;;5035322;28;20028;-77
2020/12/13 08:06:29;;;;;;;5.65;3.55;;;6.10;89.10;;;;;;5035287;28;20036;-77
2020/12/13 08:08:54;;;;;;;7.32;4.10;;;6.10;88.20;;;;;;5035349;28;20026;-75
2020/12/13 08:11:20;;;;;;;13.27;3.92;;;6.20;88.00;;;;;;5017374;28;20030;-76
2020/12/13 08:13:54;;;;;;;11.80;3.65;;;6.20;89.20;;;;;;5035233;28;20020;-75
2020/12/13 08:16:23;;;;;;;8.98;3.60;;;6.50;94.20;;;;;;5035130;28;20037;-77
2020/12/13 08:18:50;;;;;;;6.97;3.55;;;6.80;94.50;;;;;;5035148;28;20092;-76
2020/12/13 08:21:45;;;;;;;6.30;3.22;;;7.00;92.20;;;;;;5035050;28;20401;-74
2020/12/13 08:24:14;;;;;;;6.05;3.97;;;7.20;90.90;;;;;;4994048;28;20050;-77
2020/12/13 08:26:41;;;;;;;4.22;3.60;;;7.90;87.80;;;;;;5035049;28;20498;-76
2020/12/13 08:29:08;;;;;;;5.47;3.90;;;8.00;84.40;;;;;;5034773;28;20049;-77
2020/12/13 08:31:35;;;;;;;5.55;4.22;;;7.90;83.00;;;;;;5023513;28;20022;-77
2020/12/13 08:34:06;;;;;;;8.77;4.25;;;7.70;83.80;;;;;;5014876;28;20061;-77
2020/12/13 08:36:33;;;;;;;6.05;3.45;;;7.80;82.60;;;;;;5015184;28;20050;-77
2020/12/13 08:39:09;;;;;;;4.03;3.05;;;8.00;81.30;;;;;;5014986;28;20084;-78
2020/12/13 08:41:43;;;;;;;3.50;2.95;;;8.30;80.30;;;;;;5015133;28;20049;-80
2020/12/13 08:44:37;;;;;;;4.80;3.28;;;8.10;79.10;;;;;;5014714;28;20030;-79
2020/12/13 08:47:05;;;;;;;5.05;3.55;;;8.00;79.30;;;;;;5014832;28;20029;-79
2020/12/13 08:49:35;;;;;;;5.90;4.40;;;7.70;79.90;;;;;;4997297;28;20142;-79
2020/12/13 08:52:21;;;;;;;5.80;4.75;;;7.50;80.50;;;;;;5014773;28;20032;-79
2020/12/13 08:54:58;;;;;;;7.57;5.75;;;7.30;81.10;;;;;;5014706;28;20097;-80
2020/12/13 08:57:31;;;;;;;8.60;5.07;;;7.20;81.70;;;;;;5014743;28;20109;-80
2020/12/13 09:00:03;;;;;;;10.38;5.28;;;7.10;82.40;;;;;;5014688;28;20359;-79
2020/12/13 09:02:29;;;;;;;7.15;5.03;;;7.00;82.80;;;;;;4997195;28;20113;-79
2020/12/13 09:04:58;;;;;;;5.40;4.47;;;6.90;83.30;;;;;;5014592;28;20108;-79
2020/12/13 09:07:31;;;;;;;4.70;3.60;;;6.90;84.40;;;;;;5014453;28;20029;-79
2020/12/13 09:09:58;;;;;;;5.43;3.65;;;6.90;83.80;;;;;;5014400;28;20028;-80
2020/12/13 09:12:28;;;;;;;5.28;4.18;;;6.80;83.90;;;;;;5014135;28;20137;-78
2020/12/13 09:14:54;;;;;;;6.95;4.68;;;6.80;84.20;;;;;;5014422;28;20065;-77
2020/12/13 09:17:23;;;;;;;5.90;4.80;;;6.70;84.40;;;;;;5014450;28;20034;-78
2020/12/13 09:19:50;;;;;;;7.45;5.05;;;6.70;84.90;;;;;;5014215;28;20109;-78
2020/12/13 09:22:23;;;;;;;7.63;5.07;;;6.70;85.10;;;;;;4996629;28;20454;-79
2020/12/13 09:24:49;;;;;;;8.27;5.93;;;6.70;85.20;;;;;;5014119;28;20103;-80
2020/12/13 09:27:18;;;;;;;9.60;5.55;;;6.70;85.30;;;;;;5014332;28;20033;-79
2020/12/13 09:29:46;;;;;;;10.30;6.50;;;6.70;85.30;;;;;;5013909;28;20048;-79
2020/12/13 09:32:12;;;;;;;10.75;8.55;;;6.70;85.30;;;;;;4996731;28;20363;-79
2020/12/13 09:34:38;;;;;;;11.63;9.73;;;6.70;85.50;;;;;;5014309;28;20018;-79
2020/12/13 09:37:07;;;;;;;14.10;10.02;;;6.60;85.90;;;;;;5013946;28;20477;-79
2020/12/13 09:39:32;;;;;;;18.08;10.32;;;6.50;86.40;;;;;;4996382;28;20030;-81
2020/12/13 09:41:58;;;;;;;16.45;11.30;;;6.50;86.40;;;;;;5013912;28;20036;-79
2020/12/13 09:44:25;;;;;;;13.48;9.65;;;6.50;86.50;;;;;;5014131;28;20034;-79
2020/12/13 09:46:54;;;;;;;14.18;9.13;;;6.50;86.70;;;;;;5013996;28;20030;-79
2020/12/13 09:49:20;;;;;;;12.45;9.13;;;6.60;86.70;;;;;;5013839;28;20030;-78
2020/12/13 09:51:47;;;;;;;12.23;7.95;;;6.70;86.80;;;;;;5013495;28;20065;-77
2020/12/13 09:54:12;;;;;;;11.25;8.38;;;6.70;86.70;;;;;;5013395;28;20084;-78
2020/12/13 09:56:38;;;;;;;13.13;8.45;;;6.70;86.70;;;;;;4995836;28;20022;-78
2020/12/13 09:59:03;;;;;;;10.80;7.65;;;6.70;87.50;;;;;;5013434;28;20109;-78
2020/12/13 10:01:29;;;;;;;12.27;7.65;;;6.70;86.60;;;;;;5013554;28;20026;-78
2020/12/13 10:03:55;;;;;;;10.23;7.60;;;6.80;86.40;;;;;;5013183;28;20483;-78
2020/12/13 10:09:05;;;;;;;10.23;6.32;;;6.70;86.50;;;;;;5013415;28;20046;-78
2020/12/13 10:11:32;;;;;;;9.68;6.88;;;6.80;86.60;;;;;;5013276;28;20017;-78
2020/12/13 10:13:58;;;;;;;8.57;6.22;;;6.80;86.70;;;;;;5013268;28;20061;-78
2020/12/13 10:16:25;;;;;;;7.32;5.57;;;6.90;86.70;;;;;;5013386;28;20026;-78
2020/12/13 10:18:50;;;;;;;9.00;5.75;;;6.90;86.60;;;;;;4995575;28;20025;-78
2020/12/13 10:21:22;;;;;;;8.73;5.95;;;6.90;86.30;;;;;;5013310;28;20022;-79
2020/12/13 10:23:48;;;;;;;9.32;6.72;;;7.00;86.20;;;;;;5012665;28;20033;-79
2020/12/13 10:26:14;;;;;;;10.48;6.68;;;7.00;86.10;;;;;;5013242;28;20391;-79
2020/12/13 10:28:39;;;;;;;8.65;5.68;;;7.00;86.10;;;;;;5013208;28;20046;-79
2020/12/13 10:31:05;;;;;;;8.38;5.82;;;7.00;86.20;;;;;;5013009;28;20030;-79
2020/12/13 10:33:31;;;;;;;9.00;5.97;;;7.00;86.10;;;;;;5013190;28;20021;-78
2020/12/13 10:35:56;;;;;;;8.73;6.47;;;7.00;85.90;;;;;;4995539;28;20034;-79
2020/12/13 10:38:22;;;;;;;9.98;6.35;;;7.00;85.70;;;;;;5013239;28;20088;-78
2020/12/13 10:40:47;;;;;;;11.60;6.88;;;6.90;85.60;;;;;;5013275;28;20037;-78
2020/12/13 10:43:13;;;;;;;10.80;6.68;;;6.90;85.60;;;;;;5013116;28;20029;-79
2020/12/13 10:45:39;;;;;;;13.52;9.75;;;6.90;85.70;;;;;;5013199;28;20037;-78
2020/12/13 10:48:04;;;;;;;11.40;7.63;;;6.80;85.50;;;;;;5013204;28;20098;-79
2020/12/13 10:50:37;;;;;;;12.57;7.88;;;6.80;85.70;;;;;;5013269;28;20064;-78
2020/12/13 10:53:03;;;;;;;10.63;6.68;;;6.80;85.80;;;;;;5013104;28;20026;-79
2020/12/13 10:55:29;;;;;;;11.05;8.05;;;6.80;85.80;;;;;;5013149;28;20105;-80
2020/12/13 10:57:54;;;;;;;15.65;8.70;;;6.90;85.80;;;;;;5013022;28;20505;-79
2020/12/13 11:00:23;;;;;;;4.75;3.13;;;6.80;85.50;;;;;;5012892;28;20060;-78
2020/12/13 11:02:49;;;;;;;3.97;2.17;;;6.80;84.10;;;;;;5012757;28;20053;-78
2020/12/13 11:05:14;;;;;;;3.25;1.70;;;6.70;81.80;;;;;;5012967;28;20466;-77
2020/12/13 11:07:43;;;;;;;2.65;1.30;;;6.80;79.70;;;;;;5013240;28;20383;-78
2020/12/13 11:10:09;;;;;;;1.48;0.77;;;6.70;79.00;;;;;;5013594;28;20137;-78
2020/12/13 11:12:34;;;;;;;1.77;1.10;;;6.70;77.90;;;;;;5013031;28;20467;-79
2020/12/13 11:15:00;;;;;;;1.15;0.90;;;6.60;78.10;;;;;;5013220;28;20030;-79
2020/12/13 11:17:28;;;;;;;2.33;1.42;;;6.60;77.90;;;;;;5012996;28;20033;-78
2020/12/13 11:19:53;;;;;;;5.68;2.75;;;6.60;78.40;;;;;;5013514;28;20033;-78
2020/12/13 11:22:19;;;;;;;2.25;1.00;;;6.60;78.50;;;;;;5012988;28;20022;-79
2020/12/13 11:24:45;;;;;;;1.98;1.23;;;6.60;77.40;;;;;;5012891;28;20105;-79
2020/12/13 11:27:10;;;;;;;3.03;1.77;;;6.50;77.70;;;;;;4995122;28;20072;-79
2020/12/13 11:29:36;;;;;;;2.35;1.23;;;6.50;78.10;;;;;;5012626;28;20053;-78
2020/12/13 11:32:02;;;;;;;1.70;1.00;;;6.60;78.30;;;;;;5012601;28;20499;-76
2020/12/13 11:34:28;;;;;;;1.30;1.00;;;6.60;77.70;;;;;;4995010;28;20497;-77
2020/12/13 11:36:53;;;;;;;1.50;1.05;;;6.60;76.90;;;;;;5015722;28;20026;-78
2020/12/13 11:39:19;;;;;;;4.13;1.38;;;6.60;76.40;;;;;;5016152;28;20025;-78
2020/12/13 11:41:45;;;;;;;1.48;1.30;;;6.60;77.00;;;;;;5016217;28;20501;-78
2020/12/13 11:44:10;;;;;;;2.05;1.20;;;6.70;76.70;;;;;;5015963;28;20064;-78
2020/12/13 11:46:36;;;;;;;2.95;1.50;;;6.70;76.10;;;;;;5016173;28;20466;-78
2020/12/13 11:49:01;;;;;;;2.78;1.50;;;6.70;76.00;;;;;;5015949;28;20125;-79
2020/12/13 11:51:27;;;;;;;4.60;2.20;;;6.80;76.30;;;;;;5015891;28;20415;-79
2020/12/13 11:53:52;;;;;;;6.95;2.40;;;6.80;77.10;;;;;;5015965;28;20045;-78
2020/12/13 11:56:19;;;;;;;2.88;1.67;;;6.90;76.90;;;;;;5015474;28;20030;-77
2020/12/13 11:58:45;;;;;;;3.40;1.88;;;6.90;77.10;;;;;;5015691;28;20026;-78
2020/12/13 12:01:10;;;;;;;3.33;1.85;;;6.90;77.30;;;;;;5028394;28;20033;-78
2020/12/13 12:03:36;;;;;;;7.00;3.22;;;6.90;77.20;;;;;;5035521;28;20029;-78
2020/12/13 12:06:02;;;;;;;3.65;2.10;;;6.90;77.60;;;;;;5035203;28;20037;-78
2020/12/13 12:08:28;;;;;;;2.38;1.40;;;6.80;77.10;;;;;;5035098;28;20026;-77
2020/12/13 12:10:54;;;;;;;4.20;1.60;;;6.70;76.80;;;;;;5035598;28;20024;-79
2020/12/13 12:13:19;;;;;;;2.55;1.50;;;6.70;76.90;;;;;;5017349;28;20033;-79
2020/12/13 12:15:45;;;;;;;2.50;1.52;;;6.70;76.60;;;;;;5035276;28;20204;-79
2020/12/13 12:18:10;;;;;;;2.42;1.80;;;6.50;77.70;;;;;;5035527;28;20478;-80
2020/12/13 12:20:36;;;;;;;3.75;2.53;;;6.50;78.00;;;;;;5035116;28;20100;-79
2020/12/13 12:23:01;;;;;;;3.15;1.92;;;6.50;78.40;;;;;;5035108;28;20036;-79
2020/12/13 12:25:27;;;;;;;6.75;2.05;;;6.50;78.50;;;;;;5034837;28;20508;-76
2020/12/13 12:27:53;;;;;;;3.22;1.50;;;6.50;78.50;;;;;;5034981;28;20075;-75
2020/12/13 12:30:19;;;;;;;3.85;1.77;;;7.10;87.10;;;;;;5034805;28;20136;-74
2020/12/13 12:32:45;;;;;;;4.60;1.45;;;7.50;85.10;;;;;;5035054;28;20473;-75
2020/12/13 12:35:10;;;;;;;7.65;1.83;;;8.10;83.20;;;;;;5034746;28;20099;-74
2020/12/13 12:37:36;;;;;;;3.50;1.65;;;8.30;79.70;;;;;;5034614;28;20037;-73
2020/12/13 12:40:02;;;;;;;3.40;1.38;;;8.50;75.90;;;;;;5034612;28;20026;-73
2020/12/13 12:42:28;;;;;;;3.38;1.73;;;8.80;74.70;;;;;;5034682;28;20041;-72
2020/12/13 12:44:53;;;;;;;3.28;2.13;;;8.80;73.50;;;;;;5034378;28;20091;-71
2020/12/13 12:47:19;;;;;;;6.68;1.85;;;9.00;72.20;;;;;;5033803;28;20386;-73
2020/12/13 12:49:45;;;;;;;3.58;1.88;;;9.20;71.40;;;;;;5034764;28;20474;-72
2020/12/13 12:52:10;;;;;;;6.35;2.10;;;9.30;71.10;;;;;;5034644;28;20079;-72
2020/12/13 12:54:36;;;;;;;8.23;1.95;;;9.40;70.90;;;;;;5036626;28;20295;-72
2020/12/13 12:57:01;;;;;;;4.82;2.35;;;9.40;71.10;;;;;;5037839;28;20029;-74
2020/12/13 12:59:46;;;;;;;6.70;2.63;;;9.40;70.00;;;;;;5037089;28;20060;-72
2020/12/13 13:02:12;;;;;;;5.75;2.45;;;9.30;69.40;;;;;;5019557;28;20093;-73
2020/12/13 13:04:44;;;;;;;3.47;2.30;;;9.40;69.90;;;;;;5034697;28;20549;-75
2020/12/13 13:07:17;;;;;;;6.47;2.38;;;9.30;69.40;;;;;;5017478;28;20064;-73
2020/12/13 13:10:02;;;;;;;7.50;3.22;;;9.60;69.90;;;;;;5016648;28;20028;-74